Nordic Stockholm — 2DKI2 — position and weather

sailwx.info

Track history (hours):
 
Tides and Currents Weather Stations Pressure Air Temp Water Temp Dewpoint Dewpoint Depression Visibility Wind Speed Wind Dir Waves Ship Positions

Nordic Stockholm

Last reported at 2016-Sep-22 12:33 UTC. Time now 2016-Sep-26 20:47 UTC.
Position N 55°12' E 013°12'.

Length 180 m; draft 6.3 m.

Type: Cargo ship. MMSI: 235079725.

Date/timePositionNaut miles runAvg speedWind from/ knotsBaromVisibWave heightAir tempDewpointWater temp
2016-Sep-22 12:33N 55°12' E 013°12'78 9.7
2016-Sep-22 04:33N 56°20' E 012°05'1312.8
2016-Sep-22 03:34N 56°32' E 011°58'3812.6
2016-Sep-22 00:33N 57°08' E 011°37'1312.8
2016-Sep-21 23:33N 57°21' E 011°29'1212.4
2016-Sep-21 22:33N 57°31' E 011°17'62 2.1
2016-Sep-20 17:07N 57°34' E 009°22'6 2.2
2016-Sep-20 14:32N 57°33' E 009°12'5613.3
2016-Sep-20 10:20N 56°56' E 007°54'19913.5
2016-Sep-19 19:34N 54°02' E 005°06'1413.6
2016-Sep-19 18:33N 53°48' E 005°00'5413.5
2016-Sep-19 14:33N 53°00' E 004°21'1312.8
2016-Sep-19 13:33N 52°48' E 004°12'1212.2
2016-Sep-19 12:33N 52°37' E 004°06'6 6.5
2016-Sep-19 11:33N 52°32' E 004°13'0 0.0
2016-Sep-19 09:33N 52°32' E 004°13'0 0.0
2016-Sep-19 07:33N 52°32' E 004°13'0 0.1
2016-Sep-19 06:33N 52°32' E 004°13'0 0.0
2016-Sep-19 03:33N 52°32' E 004°13'0 0.2
2016-Sep-19 02:33N 52°32' E 004°13'0 0.0
2016-Sep-19 00:33N 52°32' E 004°13'0 0.0
2016-Sep-18 19:33N 52°32' E 004°13'0 0.1
2016-Sep-18 15:33N 52°32' E 004°13'0 0.2
2016-Sep-18 14:33N 52°32' E 004°13'0 0.0
2016-Sep-18 10:33N 52°32' E 004°13'0 0.0
2016-Sep-18 09:33N 52°32' E 004°13'0 0.0
2016-Sep-18 02:33N 52°32' E 004°13'0 0.2
2016-Sep-18 01:33N 52°32' E 004°13'0 0.0
2016-Sep-18 00:30N 52°32' E 004°13'0 0.0
2016-Sep-17 22:33N 52°32' E 004°13'0 0.0
2016-Sep-17 21:33N 52°32' E 004°13'0 0.0
2016-Sep-17 20:33N 52°32' E 004°13'0 0.0
2016-Sep-17 19:15N 52°32' E 004°13'0 0.0
2016-Sep-17 13:33N 52°32' E 004°13'0 0.1
2016-Sep-17 12:33N 52°32' E 004°13'0 0.1
2016-Sep-17 10:33N 52°32' E 004°13'0 0.0
2016-Sep-17 09:33N 52°32' E 004°13'0 0.0
2016-Sep-17 08:33N 52°32' E 004°13'0 0.0
2016-Sep-17 07:33N 52°32' E 004°13'0 0.1
2016-Sep-17 05:33N 52°32' E 004°13'0 0.1
2016-Sep-17 04:33N 52°33' E 004°13'0 0.0
2016-Sep-17 00:33N 52°32' E 004°13'0 0.0
2016-Sep-16 17:33N 52°33' E 004°13'0 0.0
2016-Sep-16 15:33N 52°33' E 004°13'0 0.0
2016-Sep-16 12:33N 52°33' E 004°13'0 0.0
2016-Sep-16 09:33N 52°32' E 004°13'0 0.0
2016-Sep-16 07:33N 52°32' E 004°13'4 1.1
2016-Sep-16 03:33N 52°30' E 004°20'10 9.7
2016-Sep-16 02:34N 52°28' E 004°35'5 2.4
2016-Sep-16 00:33N 52°26' E 004°42'3 1.4
2016-Sep-15 22:33N 52°25' E 004°46'0 0.0
2016-Sep-15 21:33N 52°25' E 004°46'0 0.0
2016-Sep-15 20:33N 52°25' E 004°46'0 0.0
2016-Sep-15 18:33N 52°25' E 004°46'0 0.0
2016-Sep-15 12:34N 52°25' E 004°46'0 0.0
2016-Sep-15 11:34N 52°25' E 004°46'0 0.0
2016-Sep-15 04:34N 52°25' E 004°46'0 0.0
2016-Sep-15 03:33N 52°25' E 004°46'0 0.0
2016-Sep-15 01:33N 52°25' E 004°46'0 0.0
2016-Sep-14 22:33N 52°25' E 004°46'0 0.0
2016-Sep-14 21:33N 52°25' E 004°46'0 0.0
2016-Sep-14 17:34N 52°25' E 004°46'0 0.0
2016-Sep-14 16:34N 52°25' E 004°46'0 0.0
2016-Sep-14 13:33N 52°25' E 004°46'0 0.0
2016-Sep-14 12:33N 52°25' E 004°46'0 0.0
2016-Sep-14 10:33N 52°25' E 004°46'0 0.0
2016-Sep-14 09:34N 52°25' E 004°46'0 0.0
2016-Sep-14 08:34N 52°25' E 004°46'0 0.0
2016-Sep-14 07:33N 52°25' E 004°46'0 0.0
2016-Sep-14 06:33N 52°25' E 004°46'0 0.0
2016-Sep-14 03:33N 52°25' E 004°46'0 0.0
2016-Sep-13 22:34N 52°25' E 004°46'0 0.0
2016-Sep-13 20:34N 52°25' E 004°46'0 0.0
2016-Sep-13 18:34N 52°25' E 004°46'0 0.0
2016-Sep-13 17:33N 52°25' E 004°46'0 0.0
2016-Sep-13 16:34N 52°25' E 004°46'0 0.0
2016-Sep-13 11:33N 52°25' E 004°46'0 0.0
2016-Sep-13 09:33N 52°25' E 004°46'0 0.0
2016-Sep-13 07:33N 52°25' E 004°46'0 0.0
2016-Sep-13 06:33N 52°25' E 004°46'0 0.0
2016-Sep-13 04:33N 52°25' E 004°46'0 0.0
2016-Sep-13 02:33N 52°25' E 004°46'0 0.0
2016-Sep-12 23:34N 52°25' E 004°46'0 0.0
2016-Sep-12 21:34N 52°25' E 004°46'0 0.0
2016-Sep-12 19:34N 52°25' E 004°46'0 0.0
2016-Sep-12 17:34N 52°25' E 004°46'0 0.0
2016-Sep-12 14:33N 52°25' E 004°46'0 0.0
2016-Sep-12 13:33N 52°25' E 004°46'0 0.0
2016-Sep-12 12:33N 52°25' E 004°46'  
Track history (hours):
 
Tides and Currents Weather Stations Pressure Air Temp Water Temp Dewpoint Dewpoint Depression Visibility Wind Speed Wind Dir Waves Ship Positions

Nordic Stockholm

Last reported at 2016-Sep-22 12:33 UTC. Time now 2016-Sep-26 20:47 UTC.
Position N 55°12' E 013°12'.

Length 180 m; draft 6.3 m.

Type: Cargo ship. MMSI: 235079725.

Date/timePositionNaut miles runAvg speedWind from/ knotsBaromVisibWave heightAir tempDewpointWater temp
2016-Sep-22 12:33N 55°12' E 013°12'78 9.7
2016-Sep-22 04:33N 56°20' E 012°05'1312.8
2016-Sep-22 03:34N 56°32' E 011°58'3812.6
2016-Sep-22 00:33N 57°08' E 011°37'1312.8
2016-Sep-21 23:33N 57°21' E 011°29'1212.4
2016-Sep-21 22:33N 57°31' E 011°17'62 2.1
2016-Sep-20 17:07N 57°34' E 009°22'6 2.2
2016-Sep-20 14:32N 57°33' E 009°12'5613.3
2016-Sep-20 10:20N 56°56' E 007°54'19913.5
2016-Sep-19 19:34N 54°02' E 005°06'1413.6
2016-Sep-19 18:33N 53°48' E 005°00'5413.5
2016-Sep-19 14:33N 53°00' E 004°21'1312.8
2016-Sep-19 13:33N 52°48' E 004°12'1212.2
2016-Sep-19 12:33N 52°37' E 004°06'6 6.5
2016-Sep-19 11:33N 52°32' E 004°13'0 0.0
2016-Sep-19 09:33N 52°32' E 004°13'0 0.0
2016-Sep-19 07:33N 52°32' E 004°13'0 0.1
2016-Sep-19 06:33N 52°32' E 004°13'0 0.0
2016-Sep-19 03:33N 52°32' E 004°13'0 0.2
2016-Sep-19 02:33N 52°32' E 004°13'0 0.0
2016-Sep-19 00:33N 52°32' E 004°13'0 0.0
2016-Sep-18 19:33N 52°32' E 004°13'0 0.1
2016-Sep-18 15:33N 52°32' E 004°13'0 0.2
2016-Sep-18 14:33N 52°32' E 004°13'0 0.0
2016-Sep-18 10:33N 52°32' E 004°13'0 0.0
2016-Sep-18 09:33N 52°32' E 004°13'0 0.0
2016-Sep-18 02:33N 52°32' E 004°13'0 0.2
2016-Sep-18 01:33N 52°32' E 004°13'0 0.0
2016-Sep-18 00:30N 52°32' E 004°13'0 0.0
2016-Sep-17 22:33N 52°32' E 004°13'0 0.0
2016-Sep-17 21:33N 52°32' E 004°13'0 0.0
2016-Sep-17 20:33N 52°32' E 004°13'0 0.0
2016-Sep-17 19:15N 52°32' E 004°13'0 0.0
2016-Sep-17 13:33N 52°32' E 004°13'0 0.1
2016-Sep-17 12:33N 52°32' E 004°13'0 0.1
2016-Sep-17 10:33N 52°32' E 004°13'0 0.0
2016-Sep-17 09:33N 52°32' E 004°13'0 0.0
2016-Sep-17 08:33N 52°32' E 004°13'0 0.0
2016-Sep-17 07:33N 52°32' E 004°13'0 0.1
2016-Sep-17 05:33N 52°32' E 004°13'0 0.1
2016-Sep-17 04:33N 52°33' E 004°13'0 0.0
2016-Sep-17 00:33N 52°32' E 004°13'0 0.0
2016-Sep-16 17:33N 52°33' E 004°13'0 0.0
2016-Sep-16 15:33N 52°33' E 004°13'0 0.0
2016-Sep-16 12:33N 52°33' E 004°13'0 0.0
2016-Sep-16 09:33N 52°32' E 004°13'0 0.0
2016-Sep-16 07:33N 52°32' E 004°13'4 1.1
2016-Sep-16 03:33N 52°30' E 004°20'10 9.7
2016-Sep-16 02:34N 52°28' E 004°35'5 2.4
2016-Sep-16 00:33N 52°26' E 004°42'3 1.4
2016-Sep-15 22:33N 52°25' E 004°46'0 0.0
2016-Sep-15 21:33N 52°25' E 004°46'0 0.0
2016-Sep-15 20:33N 52°25' E 004°46'0 0.0
2016-Sep-15 18:33N 52°25' E 004°46'0 0.0
2016-Sep-15 12:34N 52°25' E 004°46'0 0.0
2016-Sep-15 11:34N 52°25' E 004°46'0 0.0
2016-Sep-15 04:34N 52°25' E 004°46'0 0.0
2016-Sep-15 03:33N 52°25' E 004°46'0 0.0
2016-Sep-15 01:33N 52°25' E 004°46'0 0.0
2016-Sep-14 22:33N 52°25' E 004°46'0 0.0
2016-Sep-14 21:33N 52°25' E 004°46'0 0.0
2016-Sep-14 17:34N 52°25' E 004°46'0 0.0
2016-Sep-14 16:34N 52°25' E 004°46'0 0.0
2016-Sep-14 13:33N 52°25' E 004°46'0 0.0
2016-Sep-14 12:33N 52°25' E 004°46'0 0.0
2016-Sep-14 10:33N 52°25' E 004°46'0 0.0
2016-Sep-14 09:34N 52°25' E 004°46'0 0.0
2016-Sep-14 08:34N 52°25' E 004°46'0 0.0
2016-Sep-14 07:33N 52°25' E 004°46'0 0.0
2016-Sep-14 06:33N 52°25' E 004°46'0 0.0
2016-Sep-14 03:33N 52°25' E 004°46'0 0.0
2016-Sep-13 22:34N 52°25' E 004°46'0 0.0
2016-Sep-13 20:34N 52°25' E 004°46'0 0.0
2016-Sep-13 18:34N 52°25' E 004°46'0 0.0
2016-Sep-13 17:33N 52°25' E 004°46'0 0.0
2016-Sep-13 16:34N 52°25' E 004°46'0 0.0
2016-Sep-13 11:33N 52°25' E 004°46'0 0.0
2016-Sep-13 09:33N 52°25' E 004°46'0 0.0
2016-Sep-13 07:33N 52°25' E 004°46'0 0.0
2016-Sep-13 06:33N 52°25' E 004°46'0 0.0
2016-Sep-13 04:33N 52°25' E 004°46'0 0.0
2016-Sep-13 02:33N 52°25' E 004°46'0 0.0
2016-Sep-12 23:34N 52°25' E 004°46'0 0.0
2016-Sep-12 21:34N 52°25' E 004°46'0 0.0
2016-Sep-12 19:34N 52°25' E 004°46'0 0.0
2016-Sep-12 17:34N 52°25' E 004°46'0 0.0
2016-Sep-12 14:33N 52°25' E 004°46'0 0.0
2016-Sep-12 13:33N 52°25' E 004°46'0 0.0
2016-Sep-12 12:33N 52°25' E 004°46'  

Dump ship's entire track history